createdAt,value
2018-11-22T00:02:30.334Z,95.47
2018-11-22T00:07:37.944Z,95.52
2018-11-22T00:12:45.022Z,95.53
2018-11-22T00:17:52.933Z,95.45
2018-11-22T00:23:00.014Z,95.56
2018-11-22T00:28:07.029Z,95.57
2018-11-22T00:33:14.637Z,95.57
2018-11-22T00:38:22.016Z,95.67
2018-11-22T00:43:29.295Z,95.67
2018-11-22T00:48:36.512Z,95.58
2018-11-22T00:53:44.232Z,95.51
2018-11-22T00:58:51.492Z,95.49
2018-11-22T01:03:58.869Z,95.49
2018-11-22T01:09:10.289Z,95.46
2018-11-22T01:14:17.791Z,95.55
2018-11-22T01:19:26.080Z,95.54
2018-11-22T01:24:33.065Z,95.53
2018-11-22T01:29:40.052Z,95.61
2018-11-22T01:34:47.208Z,95.70
2018-11-22T01:39:54.396Z,95.71
2018-11-22T01:45:01.467Z,95.68
2018-11-22T01:50:10.531Z,95.72
2018-11-22T01:55:19.280Z,95.83
2018-11-22T02:00:27.497Z,95.72
2018-11-22T02:05:34.489Z,95.71
2018-11-22T02:10:42.043Z,95.80
2018-11-22T02:15:49.355Z,95.73
2018-11-22T02:20:57.280Z,95.87
2018-11-22T02:26:04.415Z,95.99
2018-11-22T02:31:11.699Z,96.01
2018-11-22T02:36:18.832Z,96.04
2018-11-22T02:41:26.685Z,96.11
2018-11-22T02:46:33.701Z,96.39
2018-11-22T02:51:42.271Z,96.57
2018-11-22T02:56:50.057Z,96.74
2018-11-22T03:01:58.210Z,96.85
2018-11-22T03:07:05.290Z,96.97
2018-11-22T03:12:12.365Z,97.01
2018-11-22T03:17:19.744Z,97.07
2018-11-22T03:22:26.721Z,97.14
2018-11-22T03:27:34.774Z,97.20
2018-11-22T03:32:42.185Z,97.24
2018-11-22T03:37:49.574Z,97.24
2018-11-22T03:42:56.918Z,97.30
2018-11-22T03:48:04.253Z,97.30
2018-11-22T03:53:11.316Z,97.33
2018-11-22T03:58:18.306Z,97.32
2018-11-22T04:03:25.720Z,97.34
2018-11-22T04:08:32.711Z,97.31
2018-11-22T04:13:40.054Z,97.35
2018-11-22T04:18:47.012Z,97.22
2018-11-22T04:23:55.034Z,97.16
2018-11-22T04:29:02.467Z,97.11
2018-11-22T04:34:09.452Z,97.08
2018-11-22T04:39:17.371Z,97.09
2018-11-22T04:44:24.544Z,97.13
2018-11-22T04:49:31.703Z,97.12
2018-11-22T04:54:38.705Z,97.07
2018-11-22T04:59:45.687Z,97.00
2018-11-22T05:04:52.746Z,96.90
2018-11-22T05:09:59.735Z,96.86
2018-11-22T05:15:07.571Z,96.84
2018-11-22T05:20:15.826Z,96.83
2018-11-22T05:25:24.004Z,96.81
2018-11-22T05:30:31.262Z,96.84
2018-11-22T05:35:38.221Z,96.77
2018-11-22T05:40:46.024Z,96.67
2018-11-22T05:45:53.617Z,96.70
2018-11-22T05:51:02.482Z,96.75
2018-11-22T05:56:09.791Z,96.64
2018-11-22T06:01:17.123Z,96.61
2018-11-22T06:06:25.033Z,96.64
2018-11-22T06:11:32.098Z,96.64
2018-11-22T06:16:39.183Z,96.58
2018-11-22T06:21:46.855Z,96.57
2018-11-22T06:26:54.203Z,96.56
2018-11-22T06:32:01.174Z,96.62
2018-11-22T06:37:08.216Z,96.62
2018-11-22T06:42:15.471Z,96.70
2018-11-22T06:47:22.755Z,96.74
2018-11-22T06:52:29.713Z,96.84
2018-11-22T06:57:36.776Z,96.93
2018-11-22T07:02:43.738Z,96.95
2018-11-22T07:07:51.719Z,96.95
2018-11-22T07:13:00.434Z,96.85
2018-11-22T07:18:07.406Z,96.92
2018-11-22T07:23:14.357Z,96.90
2018-11-22T07:28:21.424Z,96.79
2018-11-22T07:33:29.566Z,96.70
2018-11-22T07:38:36.438Z,96.71
2018-11-22T07:43:44.177Z,96.66
2018-11-22T07:48:53.325Z,96.56
2018-11-22T07:54:00.641Z,96.51
2018-11-22T07:59:08.232Z,96.43
2018-11-22T08:04:15.107Z,96.46
2018-11-22T08:09:22.067Z,96.47
2018-11-22T08:14:29.504Z,96.44
2018-11-22T08:19:36.908Z,96.31
2018-11-22T08:24:44.182Z,96.23
2018-11-22T08:29:51.057Z,96.25
2018-11-22T08:34:57.948Z,96.07
2018-11-22T08:40:07.294Z,96.00
2018-11-22T08:45:15.565Z,95.95
2018-11-22T08:50:25.308Z,95.95
2018-11-22T08:55:32.290Z,95.95
2018-11-22T09:00:39.253Z,95.74
2018-11-22T09:05:46.195Z,95.69
2018-11-22T09:10:53.143Z,95.64
2018-11-22T09:16:00.101Z,95.56
2018-11-22T09:21:07.681Z,95.07
2018-11-22T09:26:15.126Z,95.16
2018-11-22T09:31:22.069Z,95.01
2018-11-22T09:36:29.444Z,94.66
2018-11-22T09:41:36.786Z,94.57
2018-11-22T09:46:44.152Z,94.51
2018-11-22T09:51:51.363Z,94.33
2018-11-22T09:56:58.618Z,94.12
2018-11-22T10:02:06.083Z,93.84
2018-11-22T10:07:13.445Z,94.24
2018-11-22T10:12:20.450Z,94.06
2018-11-22T10:17:27.289Z,94.14
2018-11-22T10:22:34.702Z,94.21
2018-11-22T10:27:42.043Z,94.22
2018-11-22T12:19:08.355Z,92.49
2018-11-22T12:24:10.643Z,93.06
2018-11-22T12:29:13.303Z,92.55
2018-11-22T12:34:20.319Z,92.73
2018-11-22T12:39:22.345Z,92.63
2018-11-22T12:44:24.726Z,93.00
2018-11-22T12:49:27.113Z,92.30
2018-11-22T12:54:29.474Z,92.45
2018-11-22T12:59:31.773Z,91.84
2018-11-22T13:04:34.064Z,92.32
2018-11-22T13:09:36.371Z,92.35
2018-11-22T13:14:38.826Z,91.87
2018-11-22T13:19:41.220Z,91.92
2018-11-22T13:24:43.489Z,92.27
2018-11-22T13:29:45.873Z,92.42
2018-11-22T13:34:48.201Z,93.09
2018-11-22T13:39:50.487Z,93.29
2018-11-22T13:44:52.858Z,93.43
2018-11-22T13:49:55.204Z,92.80
2018-11-22T13:54:57.588Z,93.23
2018-11-22T14:00:00.006Z,93.01
2018-11-22T14:05:02.316Z,93.35
2018-11-22T14:10:06.983Z,93.09
2018-11-22T14:15:12.277Z,93.73
2018-11-22T14:20:15.993Z,92.81
2018-11-22T14:25:18.286Z,93.40
2018-11-22T14:30:25.293Z,93.70
2018-11-22T14:35:27.760Z,93.97
2018-11-22T14:40:31.498Z,93.39
2018-11-22T14:45:33.866Z,93.36
2018-11-22T14:50:38.214Z,93.29
2018-11-22T14:55:40.641Z,93.32
2018-11-22T15:00:42.979Z,93.95
2018-11-22T15:05:45.361Z,94.29
2018-11-22T15:10:47.734Z,94.50
2018-11-22T15:15:50.176Z,93.80
2018-11-22T15:20:52.791Z,93.92
2018-11-22T15:25:56.198Z,94.41
2018-11-22T15:30:58.537Z,94.53
2018-11-22T15:36:00.859Z,94.16
2018-11-22T15:41:03.159Z,95.01
2018-11-22T15:46:05.722Z,95.01
2018-11-22T15:51:09.136Z,94.91
2018-11-22T15:56:11.608Z,95.24
2018-11-22T16:01:14.182Z,94.71
2018-11-22T16:06:17.659Z,95.41
2018-11-22T16:11:20.027Z,95.36
2018-11-22T16:16:22.586Z,94.83
2018-11-22T16:21:26.194Z,94.58
2018-11-22T16:26:29.094Z,95.12
2018-11-22T16:31:31.693Z,94.49
2018-11-22T16:36:34.315Z,95.17
2018-11-22T16:41:37.234Z,95.31
2018-11-22T16:46:39.876Z,94.78
2018-11-22T16:51:42.398Z,94.64
2018-11-22T16:56:45.755Z,94.73
2018-11-22T17:01:48.119Z,95.08
2018-11-22T17:06:50.439Z,95.04
2018-11-22T17:11:52.782Z,94.99
2018-11-22T17:16:55.160Z,94.77
2018-11-22T17:21:57.468Z,94.07
2018-11-22T17:27:00.867Z,94.94
2018-11-22T17:32:03.276Z,93.89
2018-11-22T17:37:05.633Z,94.19
2018-11-22T17:42:07.999Z,94.49
2018-11-22T17:47:10.353Z,94.28
2018-11-22T17:57:12.732Z,94.43
2018-11-22T18:02:15.163Z,94.10
2018-11-22T18:07:19.311Z,94.70
2018-11-22T18:12:21.633Z,94.40
2018-11-22T18:17:24.027Z,94.19
2018-11-22T18:22:26.284Z,94.44
2018-11-22T18:27:28.648Z,94.89
2018-11-22T18:32:31.722Z,95.38
2018-11-22T18:37:34.103Z,94.79
2018-11-22T18:42:36.484Z,95.49
2018-11-22T18:47:39.207Z,94.81
2018-11-22T18:52:41.804Z,94.74
2018-11-22T18:57:44.792Z,95.07
2018-11-22T19:02:47.858Z,95.10
2018-11-22T19:07:52.696Z,95.05
2018-11-22T19:12:57.858Z,94.64
2018-11-22T19:18:01.772Z,95.20
2018-11-22T19:23:06.174Z,95.42
2018-11-22T19:28:09.551Z,94.45
2018-11-22T19:33:13.533Z,94.54
2018-11-22T19:38:15.877Z,94.72
2018-11-22T19:43:18.244Z,94.97
2018-11-22T19:48:20.580Z,94.84
2018-11-22T19:53:22.841Z,94.70
2018-11-22T19:58:25.258Z,94.28
2018-11-22T20:03:27.538Z,94.67
2018-11-22T20:08:29.990Z,94.55
2018-11-22T20:13:33.049Z,94.18
2018-11-22T20:18:35.559Z,94.45
2018-11-22T20:23:37.861Z,94.31
2018-11-22T20:28:40.134Z,94.54
2018-11-22T20:33:43.138Z,94.92
2018-11-22T20:38:45.551Z,94.04
2018-11-22T20:43:49.211Z,94.64
2018-11-22T20:48:52.121Z,94.46
2018-11-22T20:53:54.698Z,94.42
2018-11-22T20:58:58.095Z,94.30
2018-11-22T21:04:01.050Z,94.42
2018-11-22T21:09:05.147Z,93.98
2018-11-22T21:14:08.139Z,93.90
2018-11-22T21:19:10.619Z,94.51
2018-11-22T21:24:13.873Z,94.38
2018-11-22T21:29:16.232Z,94.20
2018-11-22T21:34:18.625Z,94.19
2018-11-22T21:39:20.984Z,94.08
2018-11-22T21:44:23.255Z,94.19
2018-11-22T21:49:25.666Z,93.72
2018-11-22T21:54:28.106Z,94.33
2018-11-22T21:59:30.380Z,94.27
2018-11-22T22:04:32.667Z,94.14
2018-11-22T22:09:35.045Z,93.63
2018-11-22T22:14:37.397Z,94.13
2018-11-22T22:19:39.743Z,94.28
2018-11-22T22:24:42.018Z,93.87
2018-11-22T22:29:44.322Z,94.33
2018-11-22T22:34:46.638Z,94.40
2018-11-22T22:39:48.916Z,94.26
2018-11-22T22:44:51.216Z,93.94
2018-11-22T22:49:53.540Z,93.72
2018-11-22T22:54:55.963Z,94.13
2018-11-22T22:59:58.237Z,94.11
2018-11-22T23:05:00.603Z,94.43
2018-11-22T23:10:02.988Z,94.44
2018-11-22T23:15:08.233Z,94.17
2018-11-22T23:20:13.276Z,93.52
2018-11-22T23:25:16.684Z,93.47
2018-11-22T23:30:24.939Z,94.08
2018-11-22T23:35:27.237Z,93.80
2018-11-22T23:40:30.431Z,93.98
2018-11-22T23:45:33.159Z,93.77
2018-11-22T23:50:35.476Z,94.06
2018-11-22T23:55:37.754Z,94.08
